createdAt,value
2022-11-06T00:03:24.191Z,3.35
2022-11-06T00:08:28.002Z,3.33
2022-11-06T00:13:21.731Z,3.40
2022-11-06T00:18:15.661Z,3.67
2022-11-06T00:23:09.935Z,3.38
2022-11-06T00:28:04.287Z,3.33
2022-11-06T00:32:58.410Z,3.65
2022-11-06T00:37:52.092Z,4.32
2022-11-06T00:42:46.017Z,3.95
2022-11-06T00:47:40.155Z,3.35
2022-11-06T00:52:34.093Z,3.40
2022-11-06T00:57:28.326Z,2.75
2022-11-06T01:02:22.139Z,2.88
2022-11-06T01:07:15.358Z,3.17
2022-11-06T01:12:13.650Z,2.78
2022-11-06T01:17:07.837Z,3.05
2022-11-06T01:22:02.175Z,2.88
2022-11-06T01:32:09.384Z,2.90
2022-11-06T01:37:03.066Z,2.95
2022-11-06T01:41:56.804Z,2.92
2022-11-06T01:46:50.400Z,2.95
2022-11-06T01:51:49.025Z,2.20
2022-11-06T01:56:42.134Z,3.10
2022-11-06T02:01:35.815Z,2.70
2022-11-06T02:06:30.174Z,3.70
2022-11-06T02:11:24.078Z,2.30
2022-11-06T02:16:22.482Z,3.13
2022-11-06T02:21:25.216Z,3.25
2022-11-06T02:26:30.375Z,2.40
2022-11-06T02:31:28.529Z,3.55
2022-11-06T02:36:26.685Z,3.05
2022-11-06T02:41:41.383Z,2.30
2022-11-06T02:46:38.469Z,2.72
2022-11-06T02:51:34.234Z,2.80
2022-11-06T02:56:30.749Z,2.40
2022-11-06T03:01:29.614Z,2.45
2022-11-06T03:06:28.990Z,2.80
2022-11-06T03:11:26.562Z,4.20
2022-11-06T03:16:40.967Z,3.45
2022-11-06T03:21:42.252Z,2.50
2022-11-06T03:26:38.943Z,2.50
2022-11-06T03:31:39.806Z,2.47
2022-11-06T03:36:44.759Z,2.55
2022-11-06T03:42:05.121Z,2.42
2022-11-06T03:47:15.808Z,2.92
2022-11-06T03:52:23.555Z,2.88
2022-11-06T03:57:23.557Z,2.05
2022-11-06T04:02:17.327Z,2.15
2022-11-06T04:07:14.720Z,2.55
2022-11-06T04:12:28.454Z,2.03
2022-11-06T04:17:24.194Z,2.40
2022-11-06T04:22:54.877Z,3.08
2022-11-06T04:28:00.838Z,3.70
2022-11-06T04:33:13.146Z,2.97
2022-11-06T04:38:13.356Z,3.45
2022-11-06T04:43:10.738Z,2.70
2022-11-06T04:48:06.481Z,2.80
2022-11-06T04:53:00.004Z,2.83
2022-11-06T04:57:53.378Z,3.13
2022-11-06T05:02:47.108Z,3.20
2022-11-06T05:07:41.021Z,4.03
2022-11-06T05:12:35.660Z,4.15
2022-11-06T05:17:33.929Z,4.50
2022-11-06T05:22:48.384Z,4.68
2022-11-06T05:27:41.500Z,4.65
2022-11-06T05:32:37.734Z,4.43
2022-11-06T05:37:31.678Z,4.30
2022-11-06T05:42:25.318Z,5.45
2022-11-06T05:47:18.878Z,4.05
2022-11-06T05:52:11.869Z,4.25
2022-11-06T05:57:04.962Z,3.72
2022-11-06T06:01:59.695Z,3.20
2022-11-06T06:06:53.252Z,17.70
2022-11-06T06:11:47.328Z,2.90
2022-11-06T06:16:41.735Z,2.90
2022-11-06T06:21:37.671Z,2.97
2022-11-06T06:26:30.255Z,2.28
2022-11-06T06:31:24.064Z,2.15
2022-11-06T06:36:18.013Z,2.08
2022-11-06T06:41:11.549Z,2.15
2022-11-06T06:46:07.263Z,2.35
2022-11-06T06:51:01.252Z,2.00
2022-11-06T06:55:54.608Z,2.42
2022-11-06T07:00:47.651Z,2.50
2022-11-06T07:05:42.019Z,2.50
2022-11-06T07:10:36.385Z,2.63
2022-11-06T07:15:31.106Z,2.67
2022-11-06T07:20:27.788Z,2.63
2022-11-06T07:25:23.833Z,2.45
2022-11-06T07:30:17.788Z,2.40
2022-11-06T07:35:12.925Z,2.67
2022-11-06T07:40:10.607Z,2.92
2022-11-06T07:45:03.300Z,2.83
2022-11-06T07:49:57.764Z,2.65
2022-11-06T07:54:51.332Z,3.35
2022-11-06T07:59:44.927Z,2.90
2022-11-06T08:04:38.541Z,3.03
2022-11-06T08:09:36.174Z,3.53
2022-11-06T08:14:29.122Z,3.95
2022-11-06T08:19:22.081Z,3.67
2022-11-06T08:24:21.552Z,3.45
2022-11-06T08:29:15.481Z,4.00
2022-11-06T08:34:09.037Z,2.97
2022-11-06T08:39:02.655Z,3.40
2022-11-06T08:43:56.314Z,2.92
2022-11-06T08:48:49.921Z,2.30
2022-11-06T08:53:44.223Z,2.28
2022-11-06T08:58:37.309Z,2.13
2022-11-06T09:03:30.919Z,3.50
2022-11-06T09:08:24.902Z,2.75
2022-11-06T09:13:18.719Z,2.65
2022-11-06T09:18:12.219Z,2.70
2022-11-06T09:23:07.744Z,2.83
2022-11-06T09:28:01.479Z,2.97
2022-11-06T09:33:03.014Z,3.50
2022-11-06T09:38:03.780Z,3.60
2022-11-06T09:44:03.971Z,3.42
2022-11-06T09:48:59.923Z,3.40
2022-11-06T09:54:02.377Z,4.18
2022-11-06T09:58:55.878Z,3.90
2022-11-06T10:03:53.987Z,3.65
2022-11-06T10:08:47.502Z,4.18
2022-11-06T10:14:17.758Z,4.35
2022-11-06T10:19:19.802Z,3.50
2022-11-06T10:24:24.870Z,3.00
2022-11-06T10:29:26.019Z,3.83
2022-11-06T10:34:48.393Z,3.47
2022-11-06T10:39:43.526Z,3.83
2022-11-06T10:44:36.673Z,3.75
2022-11-06T10:50:02.628Z,3.97
2022-11-06T10:55:23.678Z,3.03
2022-11-06T11:00:18.919Z,3.97
2022-11-06T11:05:17.156Z,4.45
2022-11-06T11:10:26.334Z,3.42
2022-11-06T11:15:24.831Z,3.47
2022-11-06T11:20:35.978Z,3.92
2022-11-06T11:25:30.205Z,3.50
2022-11-06T11:30:29.837Z,2.95
2022-11-06T11:35:29.949Z,3.97
2022-11-06T11:40:36.498Z,10.85
2022-11-06T11:45:29.631Z,3.67
2022-11-06T11:50:34.997Z,4.03
2022-11-06T11:55:30.111Z,2.85
2022-11-06T12:00:31.103Z,2.97
2022-11-06T12:05:46.047Z,4.60
2022-11-06T12:10:41.311Z,3.28
2022-11-06T12:16:02.248Z,3.20
2022-11-06T12:21:07.909Z,2.85
2022-11-06T12:26:10.343Z,3.08
2022-11-06T12:31:10.302Z,3.10
2022-11-06T12:36:08.062Z,2.90
2022-11-06T12:41:12.959Z,2.97
2022-11-06T12:46:24.414Z,3.80
2022-11-06T12:51:21.730Z,2.47
2022-11-06T12:56:17.419Z,2.92
2022-11-06T13:01:34.962Z,2.55
2022-11-06T13:07:02.115Z,3.72
2022-11-06T13:12:30.042Z,2.50
2022-11-06T13:17:32.898Z,3.05
2022-11-06T13:22:52.385Z,3.65
2022-11-06T13:27:44.851Z,3.00
2022-11-06T13:32:39.070Z,2.65
2022-11-06T13:37:39.040Z,2.28
2022-11-06T13:42:41.811Z,2.55
2022-11-06T13:47:41.822Z,3.00
2022-11-06T13:52:44.030Z,2.33
2022-11-06T13:57:59.038Z,2.47
2022-11-06T14:03:21.014Z,2.75
2022-11-06T14:08:23.373Z,2.28
2022-11-06T14:13:17.009Z,3.15
2022-11-06T14:18:19.485Z,2.58
2022-11-06T14:23:31.132Z,3.20
2022-11-06T14:28:33.421Z,3.67
2022-11-06T14:33:40.896Z,2.75
2022-11-06T14:38:36.290Z,3.70
2022-11-06T14:43:55.889Z,3.53
2022-11-06T14:49:16.720Z,3.05
2022-11-06T14:54:21.981Z,3.15
2022-11-06T14:59:21.960Z,3.08
2022-11-06T15:04:21.634Z,2.78
2022-11-06T15:14:09.148Z,2.70
2022-11-06T15:19:06.782Z,3.10
2022-11-06T15:24:06.368Z,3.00
2022-11-06T15:29:02.342Z,3.10
2022-11-06T15:33:59.073Z,3.67
2022-11-06T15:38:52.606Z,3.90
2022-11-06T15:43:47.454Z,4.43
2022-11-06T15:48:40.816Z,5.45
2022-11-06T15:53:39.717Z,4.47
2022-11-06T15:58:40.261Z,4.00
2022-11-06T16:03:52.548Z,3.97
2022-11-06T16:08:46.094Z,4.10
2022-11-06T16:13:39.937Z,3.97
2022-11-06T16:18:40.542Z,4.28
2022-11-06T16:23:48.806Z,3.72
2022-11-06T16:28:47.200Z,4.60
2022-11-06T16:33:41.249Z,4.70
2022-11-06T16:38:44.070Z,5.72
2022-11-06T16:43:36.624Z,5.10
2022-11-06T16:48:34.609Z,6.15
2022-11-06T16:53:30.630Z,6.30
2022-11-06T16:58:24.152Z,6.43
2022-11-06T17:03:21.138Z,6.28
2022-11-06T17:08:36.347Z,6.47
2022-11-06T17:13:33.671Z,7.57
2022-11-06T17:18:29.630Z,9.50
2022-11-06T17:23:24.172Z,8.48
2022-11-06T17:28:19.390Z,9.20
2022-11-06T17:33:15.536Z,9.48
2022-11-06T17:38:13.446Z,9.23
2022-11-06T17:43:06.559Z,9.52
2022-11-06T17:48:00.007Z,9.60
2022-11-06T17:52:53.671Z,8.77
2022-11-06T17:57:47.323Z,9.95
2022-11-06T18:03:00.390Z,7.95
2022-11-06T18:07:54.214Z,10.43
2022-11-06T18:12:51.556Z,11.98
2022-11-06T18:17:45.826Z,15.52
2022-11-06T18:22:39.913Z,10.55
2022-11-06T18:27:33.702Z,8.48
2022-11-06T18:32:27.619Z,9.60
2022-11-06T18:37:21.154Z,9.80
2022-11-06T18:42:15.269Z,10.57
2022-11-06T18:47:09.248Z,8.85
2022-11-06T18:52:02.005Z,8.68
2022-11-06T18:56:56.195Z,9.32
2022-11-06T19:01:50.245Z,9.85
2022-11-06T19:06:43.908Z,10.45
2022-11-06T19:11:37.600Z,9.57
2022-11-06T19:16:31.710Z,8.63
2022-11-06T19:21:32.124Z,11.13
2022-11-06T19:26:31.041Z,12.27
2022-11-06T19:31:29.124Z,13.90
2022-11-06T19:36:23.343Z,11.38
2022-11-06T19:41:16.185Z,10.02
2022-11-06T19:46:09.640Z,12.25
2022-11-06T19:51:03.113Z,12.15
2022-11-06T19:55:57.354Z,11.70
2022-11-06T20:00:51.085Z,11.25
2022-11-06T20:05:44.194Z,11.90
2022-11-06T20:10:38.127Z,10.75
2022-11-06T20:15:31.462Z,12.55
2022-11-06T20:20:24.717Z,11.85
2022-11-06T20:25:18.760Z,12.40
2022-11-06T20:30:12.489Z,12.68
2022-11-06T20:35:09.776Z,16.02
2022-11-06T20:40:03.197Z,15.15
2022-11-06T20:44:58.339Z,12.93
2022-11-06T20:49:53.546Z,12.27
2022-11-06T20:54:47.949Z,13.40
2022-11-06T20:59:42.415Z,10.13
2022-11-06T21:04:36.340Z,14.65
2022-11-06T21:09:29.624Z,15.52
2022-11-06T21:14:24.102Z,11.93
2022-11-06T21:19:18.494Z,12.15
2022-11-06T21:24:12.134Z,9.07
2022-11-06T21:29:07.588Z,9.38
2022-11-06T21:34:02.475Z,8.00
2022-11-06T21:38:58.872Z,9.52
2022-11-06T21:43:52.516Z,9.65
2022-11-06T21:48:47.986Z,9.95
2022-11-06T21:53:59.623Z,9.30
2022-11-06T21:58:56.545Z,8.73
2022-11-06T22:03:50.274Z,11.27
2022-11-06T22:08:44.791Z,9.32
2022-11-06T22:13:43.102Z,9.32
2022-11-06T22:18:36.862Z,10.00
2022-11-06T22:23:30.783Z,11.63
2022-11-06T22:28:24.939Z,10.07
2022-11-06T22:33:19.177Z,9.05
2022-11-06T22:38:12.416Z,9.45
2022-11-06T22:43:05.926Z,9.15
2022-11-06T22:47:59.871Z,7.80
2022-11-06T22:52:53.737Z,7.82
2022-11-06T22:57:47.901Z,7.13
2022-11-06T23:02:41.639Z,8.02
2022-11-06T23:07:35.010Z,8.68
2022-11-06T23:12:28.654Z,7.30
2022-11-06T23:17:22.249Z,8.27
2022-11-06T23:22:34.008Z,9.10
2022-11-06T23:27:28.381Z,8.68
2022-11-06T23:32:22.360Z,10.48
2022-11-06T23:37:16.134Z,9.15
2022-11-06T23:42:09.660Z,8.40
2022-11-06T23:47:02.945Z,8.15
2022-11-06T23:51:57.355Z,7.47
2022-11-06T23:56:51.257Z,6.80
